sensor_id;sensor_type;location;lat;lon;timestamp;P1;durP1;ratioP1;P2;durP2;ratioP2
12675;SDS011;63820;65.654;21.944;2023-07-02T00:00:31;1.37;;;1.20;;
12675;SDS011;63820;65.654;21.944;2023-07-02T00:03:15;1.53;;;1.20;;
12675;SDS011;63820;65.654;21.944;2023-07-02T00:05:59;1.50;;;1.40;;
12675;SDS011;63820;65.654;21.944;2023-07-02T00:08:43;1.60;;;1.03;;
12675;SDS011;63820;65.654;21.944;2023-07-02T00:11:27;1.30;;;1.20;;
12675;SDS011;63820;65.654;21.944;2023-07-02T00:14:12;1.17;;;1.07;;
12675;SDS011;63820;65.654;21.944;2023-07-02T00:16:57;1.27;;;1.07;;
12675;SDS011;63820;65.654;21.944;2023-07-02T00:19:41;0.93;;;0.90;;
12675;SDS011;63820;65.654;21.944;2023-07-02T00:22:25;2.20;;;1.00;;
12675;SDS011;63820;65.654;21.944;2023-07-02T00:25:10;1.30;;;1.20;;
12675;SDS011;63820;65.654;21.944;2023-07-02T00:27:54;1.43;;;1.10;;
12675;SDS011;63820;65.654;21.944;2023-07-02T00:30:38;0.97;;;0.83;;
12675;SDS011;63820;65.654;21.944;2023-07-02T00:33:22;1.20;;;1.10;;
12675;SDS011;63820;65.654;21.944;2023-07-02T00:36:08;1.20;;;1.10;;
12675;SDS011;63820;65.654;21.944;2023-07-02T00:38:57;1.27;;;1.00;;
12675;SDS011;63820;65.654;21.944;2023-07-02T00:41:42;1.20;;;1.10;;
12675;SDS011;63820;65.654;21.944;2023-07-02T00:44:26;0.90;;;0.90;;
12675;SDS011;63820;65.654;21.944;2023-07-02T00:47:11;1.10;;;1.00;;
12675;SDS011;63820;65.654;21.944;2023-07-02T00:49:56;1.30;;;1.10;;
12675;SDS011;63820;65.654;21.944;2023-07-02T00:52:40;1.77;;;1.10;;
12675;SDS011;63820;65.654;21.944;2023-07-02T00:55:25;1.67;;;1.10;;
12675;SDS011;63820;65.654;21.944;2023-07-02T00:58:09;1.17;;;1.07;;
12675;SDS011;63820;65.654;21.944;2023-07-02T01:00:53;1.43;;;1.00;;
12675;SDS011;63820;65.654;21.944;2023-07-02T01:03:49;1.20;;;1.10;;
12675;SDS011;63820;65.654;21.944;2023-07-02T01:06:36;1.50;;;1.00;;
12675;SDS011;63820;65.654;21.944;2023-07-02T01:09:24;1.30;;;1.17;;
12675;SDS011;63820;65.654;21.944;2023-07-02T01:12:11;1.23;;;1.13;;
12675;SDS011;63820;65.654;21.944;2023-07-02T01:14:56;1.10;;;1.00;;
12675;SDS011;63820;65.654;21.944;2023-07-02T01:17:44;1.30;;;1.20;;
12675;SDS011;63820;65.654;21.944;2023-07-02T01:20:30;1.17;;;1.07;;
12675;SDS011;63820;65.654;21.944;2023-07-02T01:23:15;1.87;;;1.00;;
12675;SDS011;63820;65.654;21.944;2023-07-02T01:25:59;1.20;;;1.00;;
12675;SDS011;63820;65.654;21.944;2023-07-02T01:28:44;1.20;;;1.10;;
12675;SDS011;63820;65.654;21.944;2023-07-02T01:31:29;0.90;;;0.90;;
12675;SDS011;63820;65.654;21.944;2023-07-02T01:34:13;1.67;;;1.10;;
12675;SDS011;63820;65.654;21.944;2023-07-02T01:36:58;2.47;;;1.10;;
12675;SDS011;63820;65.654;21.944;2023-07-02T01:39:42;1.80;;;1.00;;
12675;SDS011;63820;65.654;21.944;2023-07-02T01:42:26;0.77;;;0.77;;
12675;SDS011;63820;65.654;21.944;2023-07-02T01:45:10;1.20;;;1.10;;
12675;SDS011;63820;65.654;21.944;2023-07-02T01:47:54;1.83;;;0.90;;
12675;SDS011;63820;65.654;21.944;2023-07-02T01:50:38;1.53;;;1.00;;
12675;SDS011;63820;65.654;21.944;2023-07-02T01:53:22;1.73;;;1.00;;
12675;SDS011;63820;65.654;21.944;2023-07-02T01:56:07;0.80;;;0.80;;
12675;SDS011;63820;65.654;21.944;2023-07-02T01:58:51;0.80;;;0.70;;
12675;SDS011;63820;65.654;21.944;2023-07-02T02:01:35;1.00;;;0.90;;
12675;SDS011;63820;65.654;21.944;2023-07-02T02:04:18;0.90;;;0.80;;
12675;SDS011;63820;65.654;21.944;2023-07-02T02:07:02;1.00;;;0.90;;
12675;SDS011;63820;65.654;21.944;2023-07-02T02:09:47;1.07;;;0.83;;
12675;SDS011;63820;65.654;21.944;2023-07-02T02:12:31;1.30;;;0.97;;
12675;SDS011;63820;65.654;21.944;2023-07-02T02:15:15;0.77;;;0.73;;
12675;SDS011;63820;65.654;21.944;2023-07-02T02:18:00;0.90;;;0.80;;
12675;SDS011;63820;65.654;21.944;2023-07-02T02:20:44;0.73;;;0.73;;
12675;SDS011;63820;65.654;21.944;2023-07-02T02:23:29;0.80;;;0.80;;
12675;SDS011;63820;65.654;21.944;2023-07-02T02:26:13;0.90;;;0.70;;
12675;SDS011;63820;65.654;21.944;2023-07-02T02:28:57;1.43;;;0.70;;
12675;SDS011;63820;65.654;21.944;2023-07-02T02:31:42;0.97;;;0.80;;
12675;SDS011;63820;65.654;21.944;2023-07-02T02:34:27;1.23;;;0.63;;
12675;SDS011;63820;65.654;21.944;2023-07-02T02:37:12;1.10;;;0.83;;
12675;SDS011;63820;65.654;21.944;2023-07-02T02:39:56;0.90;;;0.70;;
12675;SDS011;63820;65.654;21.944;2023-07-02T02:42:41;1.20;;;0.53;;
12675;SDS011;63820;65.654;21.944;2023-07-02T02:45:25;2.60;;;0.60;;
12675;SDS011;63820;65.654;21.944;2023-07-02T02:48:09;0.70;;;0.40;;
12675;SDS011;63820;65.654;21.944;2023-07-02T02:50:53;0.60;;;0.60;;
12675;SDS011;63820;65.654;21.944;2023-07-02T02:53:37;0.50;;;0.50;;
12675;SDS011;63820;65.654;21.944;2023-07-02T02:56:21;0.60;;;0.60;;
12675;SDS011;63820;65.654;21.944;2023-07-02T02:59:06;1.50;;;0.70;;
12675;SDS011;63820;65.654;21.944;2023-07-02T03:01:50;1.80;;;0.70;;
12675;SDS011;63820;65.654;21.944;2023-07-02T03:04:35;1.17;;;0.60;;
12675;SDS011;63820;65.654;21.944;2023-07-02T03:07:23;1.83;;;0.77;;
12675;SDS011;63820;65.654;21.944;2023-07-02T03:10:07;0.60;;;0.60;;
12675;SDS011;63820;65.654;21.944;2023-07-02T03:12:52;0.83;;;0.83;;
12675;SDS011;63820;65.654;21.944;2023-07-02T03:15:36;0.80;;;0.60;;
12675;SDS011;63820;65.654;21.944;2023-07-02T03:18:20;0.80;;;0.70;;
12675;SDS011;63820;65.654;21.944;2023-07-02T03:21:04;1.47;;;0.60;;
12675;SDS011;63820;65.654;21.944;2023-07-02T03:23:48;1.53;;;0.80;;
12675;SDS011;63820;65.654;21.944;2023-07-02T03:26:32;1.60;;;0.60;;
12675;SDS011;63820;65.654;21.944;2023-07-02T03:29:16;1.43;;;0.70;;
12675;SDS011;63820;65.654;21.944;2023-07-02T03:32:03;0.60;;;0.60;;
12675;SDS011;63820;65.654;21.944;2023-07-02T03:34:48;0.50;;;0.50;;
12675;SDS011;63820;65.654;21.944;2023-07-02T03:37:32;0.50;;;0.43;;
12675;SDS011;63820;65.654;21.944;2023-07-02T03:40:16;1.50;;;0.67;;
12675;SDS011;63820;65.654;21.944;2023-07-02T03:43:00;0.70;;;0.43;;
12675;SDS011;63820;65.654;21.944;2023-07-02T03:45:44;0.50;;;0.50;;
12675;SDS011;63820;65.654;21.944;2023-07-02T03:48:28;0.73;;;0.53;;
12675;SDS011;63820;65.654;21.944;2023-07-02T03:51:11;0.60;;;0.60;;
12675;SDS011;63820;65.654;21.944;2023-07-02T03:54:00;0.70;;;0.60;;
12675;SDS011;63820;65.654;21.944;2023-07-02T03:56:44;0.80;;;0.60;;
12675;SDS011;63820;65.654;21.944;2023-07-02T03:59:28;1.10;;;0.57;;
12675;SDS011;63820;65.654;21.944;2023-07-02T04:02:12;0.53;;;0.47;;
12675;SDS011;63820;65.654;21.944;2023-07-02T04:04:56;0.80;;;0.40;;
12675;SDS011;63820;65.654;21.944;2023-07-02T04:07:40;0.70;;;0.50;;
12675;SDS011;63820;65.654;21.944;2023-07-02T04:10:24;0.77;;;0.60;;
12675;SDS011;63820;65.654;21.944;2023-07-02T04:13:08;0.57;;;0.50;;
12675;SDS011;63820;65.654;21.944;2023-07-02T04:15:52;0.70;;;0.60;;
12675;SDS011;63820;65.654;21.944;2023-07-02T04:18:36;0.70;;;0.57;;
12675;SDS011;63820;65.654;21.944;2023-07-02T04:21:20;0.67;;;0.40;;
12675;SDS011;63820;65.654;21.944;2023-07-02T04:24:04;1.00;;;0.60;;
12675;SDS011;63820;65.654;21.944;2023-07-02T04:26:48;0.60;;;0.50;;
12675;SDS011;63820;65.654;21.944;2023-07-02T04:29:32;0.70;;;0.50;;
12675;SDS011;63820;65.654;21.944;2023-07-02T04:32:17;0.80;;;0.50;;
12675;SDS011;63820;65.654;21.944;2023-07-02T04:35:00;1.43;;;0.50;;
12675;SDS011;63820;65.654;21.944;2023-07-02T04:37:45;0.63;;;0.40;;
12675;SDS011;63820;65.654;21.944;2023-07-02T04:40:29;0.40;;;0.37;;
12675;SDS011;63820;65.654;21.944;2023-07-02T04:43:14;0.40;;;0.40;;
12675;SDS011;63820;65.654;21.944;2023-07-02T04:46:02;0.90;;;0.50;;
12675;SDS011;63820;65.654;21.944;2023-07-02T04:48:46;1.93;;;0.50;;
12675;SDS011;63820;65.654;21.944;2023-07-02T04:51:31;0.50;;;0.50;;
12675;SDS011;63820;65.654;21.944;2023-07-02T04:54:15;1.57;;;0.67;;
12675;SDS011;63820;65.654;21.944;2023-07-02T04:56:59;2.00;;;0.43;;
12675;SDS011;63820;65.654;21.944;2023-07-02T04:59:44;0.57;;;0.50;;
12675;SDS011;63820;65.654;21.944;2023-07-02T05:02:28;0.60;;;0.50;;
12675;SDS011;63820;65.654;21.944;2023-07-02T05:05:12;0.50;;;0.47;;
12675;SDS011;63820;65.654;21.944;2023-07-02T05:07:56;0.97;;;0.50;;
12675;SDS011;63820;65.654;21.944;2023-07-02T05:10:40;0.57;;;0.50;;
12675;SDS011;63820;65.654;21.944;2023-07-02T05:13:24;1.70;;;0.50;;
12675;SDS011;63820;65.654;21.944;2023-07-02T05:16:08;1.50;;;0.50;;
12675;SDS011;63820;65.654;21.944;2023-07-02T05:18:52;0.60;;;0.40;;
12675;SDS011;63820;65.654;21.944;2023-07-02T05:21:36;0.43;;;0.40;;
12675;SDS011;63820;65.654;21.944;2023-07-02T05:24:19;2.37;;;0.63;;
12675;SDS011;63820;65.654;21.944;2023-07-02T05:27:04;0.40;;;0.37;;
12675;SDS011;63820;65.654;21.944;2023-07-02T05:29:48;0.50;;;0.50;;
12675;SDS011;63820;65.654;21.944;2023-07-02T05:32:33;1.73;;;0.70;;
12675;SDS011;63820;65.654;21.944;2023-07-02T05:35:18;0.60;;;0.60;;
12675;SDS011;63820;65.654;21.944;2023-07-02T05:38:02;0.43;;;0.40;;
12675;SDS011;63820;65.654;21.944;2023-07-02T05:40:46;0.50;;;0.40;;
12675;SDS011;63820;65.654;21.944;2023-07-02T05:43:30;1.53;;;0.50;;
12675;SDS011;63820;65.654;21.944;2023-07-02T05:46:14;1.73;;;0.40;;
12675;SDS011;63820;65.654;21.944;2023-07-02T05:48:59;1.23;;;0.50;;
12675;SDS011;63820;65.654;21.944;2023-07-02T05:51:44;0.87;;;0.50;;
12675;SDS011;63820;65.654;21.944;2023-07-02T05:54:28;1.50;;;0.60;;
12675;SDS011;63820;65.654;21.944;2023-07-02T05:57:12;0.33;;;0.33;;
12675;SDS011;63820;65.654;21.944;2023-07-02T05:59:56;1.10;;;0.50;;
12675;SDS011;63820;65.654;21.944;2023-07-02T06:02:40;0.83;;;0.50;;
12675;SDS011;63820;65.654;21.944;2023-07-02T06:05:24;1.00;;;0.60;;
12675;SDS011;63820;65.654;21.944;2023-07-02T06:08:08;1.27;;;0.47;;
12675;SDS011;63820;65.654;21.944;2023-07-02T06:10:52;1.42;;;0.50;;
12675;SDS011;63820;65.654;21.944;2023-07-02T06:13:37;0.77;;;0.45;;
12675;SDS011;63820;65.654;21.944;2023-07-02T06:16:21;1.67;;;0.40;;
12675;SDS011;63820;65.654;21.944;2023-07-02T06:19:05;0.50;;;0.50;;
12675;SDS011;63820;65.654;21.944;2023-07-02T06:21:49;0.60;;;0.40;;
12675;SDS011;63820;65.654;21.944;2023-07-02T06:24:33;0.90;;;0.40;;
12675;SDS011;63820;65.654;21.944;2023-07-02T06:27:18;2.27;;;0.47;;
12675;SDS011;63820;65.654;21.944;2023-07-02T06:30:01;0.57;;;0.37;;
12675;SDS011;63820;65.654;21.944;2023-07-02T06:32:46;0.77;;;0.50;;
12675;SDS011;63820;65.654;21.944;2023-07-02T06:35:30;0.63;;;0.40;;
12675;SDS011;63820;65.654;21.944;2023-07-02T06:38:14;1.67;;;0.50;;
12675;SDS011;63820;65.654;21.944;2023-07-02T06:40:58;0.75;;;0.40;;
12675;SDS011;63820;65.654;21.944;2023-07-02T06:43:42;0.82;;;0.47;;
12675;SDS011;63820;65.654;21.944;2023-07-02T06:46:27;1.75;;;0.50;;
12675;SDS011;63820;65.654;21.944;2023-07-02T06:49:12;0.90;;;0.50;;
12675;SDS011;63820;65.654;21.944;2023-07-02T06:51:56;0.52;;;0.43;;
12675;SDS011;63820;65.654;21.944;2023-07-02T06:54:40;0.60;;;0.50;;
12675;SDS011;63820;65.654;21.944;2023-07-02T06:57:24;0.60;;;0.50;;
12675;SDS011;63820;65.654;21.944;2023-07-02T07:00:08;0.73;;;0.32;;
12675;SDS011;63820;65.654;21.944;2023-07-02T07:02:53;1.27;;;0.50;;
12675;SDS011;63820;65.654;21.944;2023-07-02T07:05:37;1.15;;;0.70;;
12675;SDS011;63820;65.654;21.944;2023-07-02T07:08:21;0.95;;;0.40;;
12675;SDS011;63820;65.654;21.944;2023-07-02T07:11:05;0.95;;;0.50;;
12675;SDS011;63820;65.654;21.944;2023-07-02T07:13:49;0.80;;;0.43;;
12675;SDS011;63820;65.654;21.944;2023-07-02T07:16:33;0.55;;;0.45;;
12675;SDS011;63820;65.654;21.944;2023-07-02T07:19:18;0.95;;;0.50;;
12675;SDS011;63820;65.654;21.944;2023-07-02T07:22:03;0.70;;;0.50;;
12675;SDS011;63820;65.654;21.944;2023-07-02T07:24:47;0.88;;;0.50;;
12675;SDS011;63820;65.654;21.944;2023-07-02T07:27:31;0.73;;;0.47;;
12675;SDS011;63820;65.654;21.944;2023-07-02T07:30:15;0.50;;;0.50;;
12675;SDS011;63820;65.654;21.944;2023-07-02T07:33:05;0.73;;;0.45;;
12675;SDS011;63820;65.654;21.944;2023-07-02T07:35:49;2.50;;;0.50;;
12675;SDS011;63820;65.654;21.944;2023-07-02T07:38:33;2.13;;;0.57;;
12675;SDS011;63820;65.654;21.944;2023-07-02T07:41:17;0.50;;;0.50;;
12675;SDS011;63820;65.654;21.944;2023-07-02T07:44:01;0.40;;;0.40;;
12675;SDS011;63820;65.654;21.944;2023-07-02T07:46:46;1.23;;;0.50;;
12675;SDS011;63820;65.654;21.944;2023-07-02T07:49:30;1.10;;;0.50;;
12675;SDS011;63820;65.654;21.944;2023-07-02T07:52:14;0.50;;;0.50;;
12675;SDS011;63820;65.654;21.944;2023-07-02T07:54:59;0.50;;;0.50;;
12675;SDS011;63820;65.654;21.944;2023-07-02T07:57:43;0.93;;;0.60;;
12675;SDS011;63820;65.654;21.944;2023-07-02T08:00:27;1.08;;;0.47;;
12675;SDS011;63820;65.654;21.944;2023-07-02T08:03:11;2.08;;;0.50;;
12675;SDS011;63820;65.654;21.944;2023-07-02T08:05:55;2.97;;;0.40;;
12675;SDS011;63820;65.654;21.944;2023-07-02T08:08:39;1.05;;;0.50;;
12675;SDS011;63820;65.654;21.944;2023-07-02T08:11:22;0.73;;;0.50;;
12675;SDS011;63820;65.654;21.944;2023-07-02T08:14:06;0.40;;;0.40;;
12675;SDS011;63820;65.654;21.944;2023-07-02T08:16:50;0.68;;;0.40;;
12675;SDS011;63820;65.654;21.944;2023-07-02T08:19:35;0.60;;;0.57;;
12675;SDS011;63820;65.654;21.944;2023-07-02T08:22:19;0.47;;;0.40;;
12675;SDS011;63820;65.654;21.944;2023-07-02T08:25:03;1.40;;;0.57;;
12675;SDS011;63820;65.654;21.944;2023-07-02T08:27:47;0.70;;;0.40;;
12675;SDS011;63820;65.654;21.944;2023-07-02T08:30:31;0.33;;;0.33;;
12675;SDS011;63820;65.654;21.944;2023-07-02T08:33:15;0.63;;;0.50;;
12675;SDS011;63820;65.654;21.944;2023-07-02T08:35:59;1.33;;;0.50;;
12675;SDS011;63820;65.654;21.944;2023-07-02T08:38:44;0.73;;;0.60;;
12675;SDS011;63820;65.654;21.944;2023-07-02T08:41:29;1.10;;;0.50;;
12675;SDS011;63820;65.654;21.944;2023-07-02T08:44:19;0.60;;;0.50;;
12675;SDS011;63820;65.654;21.944;2023-07-02T08:47:05;0.50;;;0.45;;
12675;SDS011;63820;65.654;21.944;2023-07-02T08:49:49;0.57;;;0.50;;
12675;SDS011;63820;65.654;21.944;2023-07-02T08:52:34;3.15;;;1.17;;
12675;SDS011;63820;65.654;21.944;2023-07-02T08:55:18;0.68;;;0.50;;
12675;SDS011;63820;65.654;21.944;2023-07-02T08:58:02;1.23;;;1.08;;
12675;SDS011;63820;65.654;21.944;2023-07-02T09:01:19;0.70;;;0.43;;
12675;SDS011;63820;65.654;21.944;2023-07-02T09:04:00;0.32;;;0.32;;
12675;SDS011;63820;65.654;21.944;2023-07-02T09:06:45;0.60;;;0.50;;
12675;SDS011;63820;65.654;21.944;2023-07-02T09:09:31;0.40;;;0.40;;
12675;SDS011;63820;65.654;21.944;2023-07-02T09:12:22;0.40;;;0.40;;
12675;SDS011;63820;65.654;21.944;2023-07-02T09:15:09;1.70;;;0.50;;
12675;SDS011;63820;65.654;21.944;2023-07-02T09:17:53;0.60;;;0.40;;
12675;SDS011;63820;65.654;21.944;2023-07-02T09:20:37;0.80;;;0.40;;
12675;SDS011;63820;65.654;21.944;2023-07-02T09:23:21;0.30;;;0.30;;
12675;SDS011;63820;65.654;21.944;2023-07-02T09:26:05;1.27;;;0.50;;
12675;SDS011;63820;65.654;21.944;2023-07-02T09:28:49;0.90;;;0.40;;
12675;SDS011;63820;65.654;21.944;2023-07-02T09:31:42;0.47;;;0.40;;
12675;SDS011;63820;65.654;21.944;2023-07-02T09:34:28;0.53;;;0.50;;
12675;SDS011;63820;65.654;21.944;2023-07-02T09:37:13;0.67;;;0.47;;
12675;SDS011;63820;65.654;21.944;2023-07-02T09:39:57;0.60;;;0.40;;
12675;SDS011;63820;65.654;21.944;2023-07-02T09:42:42;0.57;;;0.50;;
12675;SDS011;63820;65.654;21.944;2023-07-02T09:45:26;1.23;;;0.60;;
12675;SDS011;63820;65.654;21.944;2023-07-02T09:48:15;0.90;;;0.40;;
12675;SDS011;63820;65.654;21.944;2023-07-02T09:51:00;1.17;;;0.50;;
12675;SDS011;63820;65.654;21.944;2023-07-02T09:53:47;0.60;;;0.60;;
12675;SDS011;63820;65.654;21.944;2023-07-02T09:56:31;1.47;;;0.70;;
12675;SDS011;63820;65.654;21.944;2023-07-02T09:59:15;0.60;;;0.60;;
12675;SDS011;63820;65.654;21.944;2023-07-02T10:02:00;1.13;;;0.40;;
12675;SDS011;63820;65.654;21.944;2023-07-02T10:04:47;0.90;;;0.40;;
12675;SDS011;63820;65.654;21.944;2023-07-02T10:07:38;1.77;;;0.60;;
12675;SDS011;63820;65.654;21.944;2023-07-02T10:10:27;0.63;;;0.50;;
12675;SDS011;63820;65.654;21.944;2023-07-02T10:13:15;0.40;;;0.40;;
12675;SDS011;63820;65.654;21.944;2023-07-02T10:16:10;1.17;;;0.50;;
12675;SDS011;63820;65.654;21.944;2023-07-02T10:18:55;0.50;;;0.50;;
12675;SDS011;63820;65.654;21.944;2023-07-02T10:21:39;0.70;;;0.50;;
12675;SDS011;63820;65.654;21.944;2023-07-02T10:24:23;0.90;;;0.40;;
12675;SDS011;63820;65.654;21.944;2023-07-02T10:27:07;0.70;;;0.40;;
12675;SDS011;63820;65.654;21.944;2023-07-02T10:29:51;0.88;;;0.40;;
12675;SDS011;63820;65.654;21.944;2023-07-02T10:32:36;0.50;;;0.40;;
12675;SDS011;63820;65.654;21.944;2023-07-02T10:35:21;0.63;;;0.40;;
12675;SDS011;63820;65.654;21.944;2023-07-02T10:38:05;0.57;;;0.40;;
12675;SDS011;63820;65.654;21.944;2023-07-02T10:40:56;0.40;;;0.40;;
12675;SDS011;63820;65.654;21.944;2023-07-02T10:43:40;1.25;;;0.47;;
12675;SDS011;63820;65.654;21.944;2023-07-02T10:46:24;0.30;;;0.30;;
12675;SDS011;63820;65.654;21.944;2023-07-02T10:49:08;0.55;;;0.50;;
12675;SDS011;63820;65.654;21.944;2023-07-02T10:51:59;0.73;;;0.43;;
12675;SDS011;63820;65.654;21.944;2023-07-02T10:54:45;0.70;;;0.50;;
12675;SDS011;63820;65.654;21.944;2023-07-02T10:57:30;1.35;;;0.57;;
12675;SDS011;63820;65.654;21.944;2023-07-02T11:00:14;0.80;;;0.70;;
12675;SDS011;63820;65.654;21.944;2023-07-02T11:02:59;0.50;;;0.50;;
12675;SDS011;63820;65.654;21.944;2023-07-02T11:05:43;0.90;;;0.60;;
12675;SDS011;63820;65.654;21.944;2023-07-02T11:08:35;1.30;;;0.43;;
12675;SDS011;63820;65.654;21.944;2023-07-02T11:11:19;0.40;;;0.40;;
12675;SDS011;63820;65.654;21.944;2023-07-02T11:14:03;0.70;;;0.50;;
12675;SDS011;63820;65.654;21.944;2023-07-02T11:16:47;0.30;;;0.30;;
12675;SDS011;63820;65.654;21.944;2023-07-02T11:19:38;1.33;;;0.50;;
12675;SDS011;63820;65.654;21.944;2023-07-02T11:22:30;1.50;;;0.60;;
12675;SDS011;63820;65.654;21.944;2023-07-02T11:25:18;0.50;;;0.40;;
12675;SDS011;63820;65.654;21.944;2023-07-02T11:28:06;1.07;;;0.60;;
12675;SDS011;63820;65.654;21.944;2023-07-02T11:30:50;0.80;;;0.40;;
12675;SDS011;63820;65.654;21.944;2023-07-02T11:33:37;1.10;;;0.60;;
12675;SDS011;63820;65.654;21.944;2023-07-02T11:36:22;1.17;;;0.50;;
12675;SDS011;63820;65.654;21.944;2023-07-02T11:39:11;1.03;;;0.50;;
12675;SDS011;63820;65.654;21.944;2023-07-02T11:41:56;0.77;;;0.40;;
12675;SDS011;63820;65.654;21.944;2023-07-02T11:44:40;0.40;;;0.40;;
12675;SDS011;63820;65.654;21.944;2023-07-02T11:47:24;0.30;;;0.30;;
12675;SDS011;63820;65.654;21.944;2023-07-02T11:50:10;1.03;;;0.50;;
12675;SDS011;63820;65.654;21.944;2023-07-02T11:52:55;0.70;;;0.40;;
12675;SDS011;63820;65.654;21.944;2023-07-02T11:55:39;0.67;;;0.50;;
12675;SDS011;63820;65.654;21.944;2023-07-02T11:58:23;0.90;;;0.50;;
12675;SDS011;63820;65.654;21.944;2023-07-02T12:01:07;0.80;;;0.40;;
12675;SDS011;63820;65.654;21.944;2023-07-02T12:03:51;0.70;;;0.40;;
12675;SDS011;63820;65.654;21.944;2023-07-02T12:06:36;0.80;;;0.40;;
12675;SDS011;63820;65.654;21.944;2023-07-02T12:09:20;0.73;;;0.40;;
12675;SDS011;63820;65.654;21.944;2023-07-02T12:12:05;0.90;;;0.30;;
12675;SDS011;63820;65.654;21.944;2023-07-02T12:14:49;0.60;;;0.50;;
12675;SDS011;63820;65.654;21.944;2023-07-02T12:17:33;1.37;;;0.40;;
12675;SDS011;63820;65.654;21.944;2023-07-02T12:20:17;0.30;;;0.30;;
12675;SDS011;63820;65.654;21.944;2023-07-02T12:23:01;0.47;;;0.47;;
12675;SDS011;63820;65.654;21.944;2023-07-02T12:25:45;0.50;;;0.30;;
12675;SDS011;63820;65.654;21.944;2023-07-02T12:28:30;0.43;;;0.40;;
12675;SDS011;63820;65.654;21.944;2023-07-02T12:31:14;1.13;;;0.40;;
12675;SDS011;63820;65.654;21.944;2023-07-02T12:33:58;0.53;;;0.50;;
12675;SDS011;63820;65.654;21.944;2023-07-02T12:36:42;0.50;;;0.40;;
12675;SDS011;63820;65.654;21.944;2023-07-02T12:39:26;0.40;;;0.37;;
12675;SDS011;63820;65.654;21.944;2023-07-02T12:42:10;0.37;;;0.37;;
12675;SDS011;63820;65.654;21.944;2023-07-02T12:44:55;0.40;;;0.40;;
12675;SDS011;63820;65.654;21.944;2023-07-02T12:47:40;1.37;;;0.60;;
12675;SDS011;63820;65.654;21.944;2023-07-02T12:50:25;0.40;;;0.30;;
12675;SDS011;63820;65.654;21.944;2023-07-02T12:53:09;0.60;;;0.33;;
12675;SDS011;63820;65.654;21.944;2023-07-02T12:55:53;0.40;;;0.40;;
12675;SDS011;63820;65.654;21.944;2023-07-02T12:58:41;0.67;;;0.40;;
12675;SDS011;63820;65.654;21.944;2023-07-02T13:01:25;0.30;;;0.30;;
12675;SDS011;63820;65.654;21.944;2023-07-02T13:04:09;0.37;;;0.37;;
12675;SDS011;63820;65.654;21.944;2023-07-02T13:06:53;0.70;;;0.47;;
12675;SDS011;63820;65.654;21.944;2023-07-02T13:09:37;0.60;;;0.50;;
12675;SDS011;63820;65.654;21.944;2023-07-02T13:12:21;0.90;;;0.40;;
12675;SDS011;63820;65.654;21.944;2023-07-02T13:15:05;0.30;;;0.30;;
12675;SDS011;63820;65.654;21.944;2023-07-02T13:17:50;0.30;;;0.30;;
12675;SDS011;63820;65.654;21.944;2023-07-02T13:20:35;0.47;;;0.40;;
12675;SDS011;63820;65.654;21.944;2023-07-02T13:23:19;0.70;;;0.40;;
12675;SDS011;63820;65.654;21.944;2023-07-02T13:26:03;0.63;;;0.40;;
12675;SDS011;63820;65.654;21.944;2023-07-02T13:28:48;0.80;;;0.40;;
12675;SDS011;63820;65.654;21.944;2023-07-02T13:31:32;1.13;;;0.40;;
12675;SDS011;63820;65.654;21.944;2023-07-02T13:34:16;1.00;;;0.40;;
12675;SDS011;63820;65.654;21.944;2023-07-02T13:37:00;1.90;;;0.50;;
12675;SDS011;63820;65.654;21.944;2023-07-02T13:39:47;0.30;;;0.30;;
12675;SDS011;63820;65.654;21.944;2023-07-02T13:42:32;0.30;;;0.30;;
12675;SDS011;63820;65.654;21.944;2023-07-02T13:45:16;0.30;;;0.30;;
12675;SDS011;63820;65.654;21.944;2023-07-02T13:48:00;0.40;;;0.30;;
12675;SDS011;63820;65.654;21.944;2023-07-02T13:50:44;0.20;;;0.20;;
12675;SDS011;63820;65.654;21.944;2023-07-02T13:53:29;0.50;;;0.40;;
12675;SDS011;63820;65.654;21.944;2023-07-02T13:56:13;0.40;;;0.40;;
12675;SDS011;63820;65.654;21.944;2023-07-02T14:01:41;0.53;;;0.40;;
12675;SDS011;63820;65.654;21.944;2023-07-02T14:04:26;0.40;;;0.30;;
12675;SDS011;63820;65.654;21.944;2023-07-02T14:07:11;0.50;;;0.40;;
12675;SDS011;63820;65.654;21.944;2023-07-02T14:09:55;0.30;;;0.20;;
12675;SDS011;63820;65.654;21.944;2023-07-02T14:12:40;0.30;;;0.30;;
12675;SDS011;63820;65.654;21.944;2023-07-02T14:15:25;0.40;;;0.40;;
12675;SDS011;63820;65.654;21.944;2023-07-02T14:18:11;1.37;;;0.40;;
12675;SDS011;63820;65.654;21.944;2023-07-02T14:20:55;0.50;;;0.37;;
12675;SDS011;63820;65.654;21.944;2023-07-02T14:23:39;0.37;;;0.30;;
12675;SDS011;63820;65.654;21.944;2023-07-02T14:26:23;8.70;;;1.03;;
12675;SDS011;63820;65.654;21.944;2023-07-02T14:29:08;0.50;;;0.40;;
12675;SDS011;63820;65.654;21.944;2023-07-02T14:31:52;3.13;;;0.50;;
12675;SDS011;63820;65.654;21.944;2023-07-02T14:34:36;0.67;;;0.37;;
12675;SDS011;63820;65.654;21.944;2023-07-02T14:37:20;0.50;;;0.30;;
12675;SDS011;63820;65.654;21.944;2023-07-02T14:40:04;0.50;;;0.40;;
12675;SDS011;63820;65.654;21.944;2023-07-02T14:42:48;0.40;;;0.40;;
12675;SDS011;63820;65.654;21.944;2023-07-02T14:45:33;0.27;;;0.27;;
12675;SDS011;63820;65.654;21.944;2023-07-02T14:48:17;0.30;;;0.30;;
12675;SDS011;63820;65.654;21.944;2023-07-02T14:51:02;0.20;;;0.20;;
12675;SDS011;63820;65.654;21.944;2023-07-02T14:53:47;0.50;;;0.40;;
12675;SDS011;63820;65.654;21.944;2023-07-02T14:56:31;0.60;;;0.33;;
12675;SDS011;63820;65.654;21.944;2023-07-02T14:59:15;0.60;;;0.40;;
12675;SDS011;63820;65.654;21.944;2023-07-02T15:01:59;2.20;;;0.40;;
12675;SDS011;63820;65.654;21.944;2023-07-02T15:04:44;0.60;;;0.30;;
12675;SDS011;63820;65.654;21.944;2023-07-02T15:07:28;0.30;;;0.30;;
12675;SDS011;63820;65.654;21.944;2023-07-02T15:10:13;0.30;;;0.30;;
12675;SDS011;63820;65.654;21.944;2023-07-02T15:12:57;0.47;;;0.40;;
12675;SDS011;63820;65.654;21.944;2023-07-02T15:15:42;0.70;;;0.40;;
12675;SDS011;63820;65.654;21.944;2023-07-02T15:18:27;0.40;;;0.40;;
12675;SDS011;63820;65.654;21.944;2023-07-02T15:21:11;0.63;;;0.50;;
12675;SDS011;63820;65.654;21.944;2023-07-02T15:23:55;0.50;;;0.40;;
12675;SDS011;63820;65.654;21.944;2023-07-02T15:26:41;0.30;;;0.30;;
12675;SDS011;63820;65.654;21.944;2023-07-02T15:29:26;0.83;;;0.60;;
12675;SDS011;63820;65.654;21.944;2023-07-02T15:32:09;0.40;;;0.40;;
12675;SDS011;63820;65.654;21.944;2023-07-02T15:34:54;1.37;;;0.30;;
12675;SDS011;63820;65.654;21.944;2023-07-02T15:37:38;1.20;;;0.47;;
12675;SDS011;63820;65.654;21.944;2023-07-02T15:40:22;0.50;;;0.50;;
12675;SDS011;63820;65.654;21.944;2023-07-02T15:43:06;1.67;;;1.30;;
12675;SDS011;63820;65.654;21.944;2023-07-02T15:45:51;2.30;;;2.10;;
12675;SDS011;63820;65.654;21.944;2023-07-02T15:48:36;0.40;;;0.40;;
12675;SDS011;63820;65.654;21.944;2023-07-02T15:51:20;0.40;;;0.40;;
12675;SDS011;63820;65.654;21.944;2023-07-02T15:54:07;1.23;;;0.40;;
12675;SDS011;63820;65.654;21.944;2023-07-02T15:56:51;0.87;;;0.40;;
12675;SDS011;63820;65.654;21.944;2023-07-02T15:59:35;1.30;;;0.40;;
12675;SDS011;63820;65.654;21.944;2023-07-02T16:02:19;1.63;;;0.50;;
12675;SDS011;63820;65.654;21.944;2023-07-02T16:05:05;0.40;;;0.40;;
12675;SDS011;63820;65.654;21.944;2023-07-02T16:07:49;0.60;;;0.40;;
12675;SDS011;63820;65.654;21.944;2023-07-02T16:10:33;0.40;;;0.40;;
12675;SDS011;63820;65.654;21.944;2023-07-02T16:13:17;0.40;;;0.30;;
12675;SDS011;63820;65.654;21.944;2023-07-02T16:16:02;1.70;;;0.40;;
12675;SDS011;63820;65.654;21.944;2023-07-02T16:18:47;0.30;;;0.30;;